createdAt,value
2016-11-29T00:00:53.124Z,36.32
2016-11-29T00:02:02.471Z,36.22
2016-11-29T00:03:11.777Z,36.32
2016-11-29T00:04:20.473Z,36.32
2016-11-29T00:05:29.177Z,36.22
2016-11-29T00:06:38.179Z,36.32
2016-11-29T00:07:47.190Z,36.22
2016-11-29T00:08:56.205Z,36.41
2016-11-29T00:10:05.209Z,36.41
2016-11-29T00:11:13.909Z,36.32
2016-11-29T00:12:22.928Z,36.22
2016-11-29T00:13:32.298Z,36.13
2016-11-29T00:14:41.313Z,36.41
2016-11-29T00:15:49.991Z,36.22
2016-11-29T00:16:58.998Z,36.32
2016-11-29T00:18:08.298Z,36.41
2016-11-29T00:19:17.313Z,36.32
2016-11-29T00:20:26.611Z,36.32
2016-11-29T00:21:35.599Z,36.41
2016-11-29T00:22:44.901Z,36.22
2016-11-29T00:23:53.917Z,36.32
2016-11-29T00:25:03.205Z,36.22
2016-11-29T00:26:12.502Z,36.41
2016-11-29T00:27:21.812Z,36.32
2016-11-29T00:28:30.504Z,36.32
2016-11-29T00:29:39.199Z,36.32
2016-11-29T00:30:48.517Z,36.41
2016-11-29T00:31:57.208Z,36.32
2016-11-29T00:33:07.147Z,36.32
2016-11-29T00:34:15.832Z,36.32
2016-11-29T00:35:24.860Z,36.32
2016-11-29T00:36:33.863Z,36.32
2016-11-29T00:37:43.192Z,36.41
2016-11-29T00:38:52.208Z,36.22
2016-11-29T00:40:01.207Z,36.32
2016-11-29T00:41:09.888Z,36.22
2016-11-29T00:42:18.880Z,36.32
2016-11-29T00:43:28.183Z,36.22
2016-11-29T00:44:37.794Z,36.22
2016-11-29T00:45:47.090Z,36.22
2016-11-29T00:46:56.090Z,36.22
2016-11-29T00:48:05.403Z,36.32
2016-11-29T00:49:14.721Z,36.32
2016-11-29T00:50:24.327Z,36.22
2016-11-29T00:51:33.324Z,36.32
2016-11-29T00:52:42.651Z,36.22
2016-11-29T00:53:51.960Z,36.22
2016-11-29T00:55:00.653Z,36.32
2016-11-29T00:56:09.651Z,36.22
2016-11-29T00:57:19.577Z,36.32
2016-11-29T00:58:28.571Z,36.03
2016-11-29T00:59:37.281Z,36.32
2016-11-29T01:00:46.262Z,36.13
2016-11-29T01:01:55.260Z,36.32
2016-11-29T01:03:03.958Z,36.22
2016-11-29T01:04:13.267Z,36.22
2016-11-29T01:05:22.266Z,36.22
2016-11-29T01:06:31.901Z,36.32
2016-11-29T01:07:41.229Z,36.32
2016-11-29T01:08:50.246Z,36.32
2016-11-29T01:09:59.859Z,36.03
2016-11-29T01:11:09.198Z,36.13
2016-11-29T01:12:17.888Z,36.32
2016-11-29T01:13:26.884Z,36.13
2016-11-29T01:14:36.190Z,36.41
2016-11-29T01:15:45.192Z,36.22
2016-11-29T01:16:54.183Z,36.32
2016-11-29T01:18:02.871Z,36.03
2016-11-29T01:19:11.553Z,35.93
2016-11-29T01:20:20.543Z,35.93
2016-11-29T01:21:29.546Z,35.83
2016-11-29T01:22:39.162Z,35.93
2016-11-29T01:23:48.463Z,36.03
2016-11-29T01:24:57.448Z,36.03
2016-11-29T01:26:06.752Z,36.03
2016-11-29T01:27:15.748Z,35.93
2016-11-29T01:28:25.350Z,35.93
2016-11-29T01:29:34.028Z,36.03
2016-11-29T01:30:42.739Z,36.03
2016-11-29T01:31:52.053Z,36.22
2016-11-29T01:33:00.815Z,36.03
2016-11-29T01:34:10.115Z,35.83
2016-11-29T01:35:19.131Z,36.03
2016-11-29T01:36:28.165Z,35.83
2016-11-29T01:37:37.170Z,35.83
2016-11-29T01:38:45.860Z,36.03
2016-11-29T01:39:54.566Z,36.13
2016-11-29T01:41:03.876Z,36.13
2016-11-29T01:42:12.862Z,36.03
2016-11-29T01:43:21.573Z,36.13
2016-11-29T01:44:30.556Z,36.22
2016-11-29T01:45:39.542Z,36.22
2016-11-29T01:46:48.237Z,36.22
2016-11-29T01:47:57.239Z,36.32
2016-11-29T01:49:06.550Z,36.22
2016-11-29T01:50:15.853Z,36.22
2016-11-29T01:51:24.544Z,35.93
2016-11-29T01:52:33.536Z,36.32
2016-11-29T01:53:42.223Z,36.22
2016-11-29T01:54:50.923Z,36.22
2016-11-29T01:55:59.912Z,36.22
2016-11-29T01:57:09.211Z,35.83
2016-11-29T01:58:17.888Z,35.83
2016-11-29T01:59:27.202Z,36.22
2016-11-29T02:00:35.893Z,36.03
2016-11-29T02:01:45.210Z,36.2
2016-11-29T02:02:54.505Z,36.32
2016-11-29T02:04:03.522Z,36.32
2016-11-29T02:05:12.205Z,36.32
2016-11-29T02:06:20.885Z,36.11
2016-11-29T02:07:29.877Z,36.13
2016-11-29T02:08:38.868Z,36.22
2016-11-29T02:09:48.177Z,36.32
2016-11-29T02:10:56.858Z,36.01
2016-11-29T02:12:05.857Z,36.13
2016-11-29T02:13:14.550Z,36.13
2016-11-29T02:14:23.239Z,36.2
2016-11-29T02:15:32.573Z,36.13
2016-11-29T02:16:41.587Z,36.22
2016-11-29T02:17:50.585Z,36.13
2016-11-29T02:18:59.281Z,36.22
2016-11-29T02:20:08.270Z,36.03
2016-11-29T02:21:17.570Z,36.13
2016-11-29T02:22:26.250Z,36.22
2016-11-29T02:23:35.266Z,36.13
2016-11-29T02:24:44.285Z,36.03
2016-11-29T02:25:53.590Z,35.93
2016-11-29T02:27:02.886Z,36.22
2016-11-29T02:28:11.576Z,36.22
2016-11-29T02:29:20.566Z,36.03
2016-11-29T02:30:29.549Z,36.01
2016-11-29T02:31:38.545Z,36.2
2016-11-29T02:32:48.152Z,35.93
2016-11-29T02:33:57.170Z,35.93
2016-11-29T02:35:05.867Z,36.01
2016-11-29T02:36:15.474Z,35.91
2016-11-29T02:37:24.190Z,36.03
2016-11-29T02:38:33.209Z,36.03
2016-11-29T02:39:42.824Z,36.01
2016-11-29T02:40:51.818Z,35.91
2016-11-29T02:42:00.495Z,35.93
2016-11-29T02:43:09.173Z,35.93
2016-11-29T02:44:18.172Z,35.93
2016-11-29T02:45:27.486Z,36.03
2016-11-29T02:46:36.476Z,35.93
2016-11-29T02:47:45.776Z,35.93
2016-11-29T02:48:55.385Z,36.03
2016-11-29T02:50:04.377Z,36.01
2016-11-29T02:51:13.076Z,36.03
2016-11-29T02:52:22.070Z,36.03
2016-11-29T02:53:31.055Z,35.91
2016-11-29T02:54:39.751Z,35.93
2016-11-29T02:55:48.770Z,36.13
2016-11-29T02:56:57.827Z,36.13
2016-11-29T02:58:07.149Z,36.22
2016-11-29T02:59:16.435Z,36.13
2016-11-29T03:00:25.433Z,36.01
2016-11-29T03:01:35.350Z,36.22
2016-11-29T03:02:44.347Z,36.2
2016-11-29T03:03:53.340Z,36.01
2016-11-29T03:05:02.642Z,36.01
2016-11-29T03:06:11.642Z,36.11
2016-11-29T03:07:20.943Z,36.11
2016-11-29T03:08:30.545Z,36.01
2016-11-29T03:09:39.853Z,36.01
2016-11-29T03:10:48.838Z,36.01
2016-11-29T03:11:57.847Z,35.82
2016-11-29T03:13:06.837Z,35.91
2016-11-29T03:14:15.842Z,35.82
2016-11-29T03:15:24.843Z,36.11
2016-11-29T03:16:34.166Z,36.01
2016-11-29T03:17:43.459Z,36.01
2016-11-29T03:18:52.154Z,36.01
2016-11-29T03:20:01.154Z,35.63
2016-11-29T03:21:09.854Z,35.91
2016-11-29T03:22:19.168Z,35.91
2016-11-29T03:23:27.850Z,35.82
2016-11-29T03:24:36.847Z,36.11
2016-11-29T03:25:46.148Z,35.82
2016-11-29T03:26:55.754Z,35.72
2016-11-29T03:28:05.067Z,35.72
2016-11-29T03:29:14.367Z,35.72
2016-11-29T03:30:23.075Z,35.82
2016-11-29T03:31:32.419Z,35.82
2016-11-29T03:32:41.101Z,35.82
2016-11-29T03:33:50.097Z,35.72
2016-11-29T03:34:59.092Z,35.82
2016-11-29T03:36:08.084Z,35.72
2016-11-29T03:37:17.081Z,35.63
2016-11-29T03:38:26.090Z,35.63
2016-11-29T03:39:35.109Z,35.91
2016-11-29T03:40:43.798Z,35.82
2016-11-29T03:41:52.800Z,35.82
2016-11-29T03:43:02.092Z,36.01
2016-11-29T03:44:10.778Z,35.72
2016-11-29T03:45:20.077Z,35.63
2016-11-29T03:46:29.090Z,35.53
2016-11-29T03:47:37.760Z,35.91
2016-11-29T03:48:46.445Z,35.91
2016-11-29T03:49:55.143Z,35.91
2016-11-29T03:51:04.137Z,35.82
2016-11-29T03:52:12.818Z,35.63
2016-11-29T03:53:22.130Z,35.82
2016-11-29T03:54:31.754Z,35.63
2016-11-29T03:55:41.367Z,35.63
2016-11-29T03:56:50.365Z,35.72
2016-11-29T03:57:59.361Z,35.63
2016-11-29T03:59:08.369Z,35.82
2016-11-29T04:00:17.356Z,35.72
2016-11-29T04:01:26.351Z,35.63
2016-11-29T04:02:35.648Z,35.63
2016-11-29T04:03:44.646Z,35.63
2016-11-29T04:04:53.943Z,35.82
2016-11-29T04:06:03.244Z,35.82
2016-11-29T04:07:12.256Z,35.63
2016-11-29T04:08:21.241Z,35.82
2016-11-29T04:09:30.229Z,35.63
2016-11-29T04:10:39.850Z,35.82
2016-11-29T04:11:49.450Z,35.72
2016-11-29T04:12:58.135Z,35.72
2016-11-29T04:14:07.451Z,35.82
2016-11-29T04:15:17.052Z,35.82
2016-11-29T04:16:26.346Z,35.82
2016-11-29T04:17:35.335Z,35.82
2016-11-29T04:18:44.329Z,35.82
2016-11-29T04:19:53.328Z,35.82
2016-11-29T04:21:02.646Z,35.72
2016-11-29T04:22:11.333Z,35.63
2016-11-29T04:23:20.027Z,35.82
2016-11-29T04:24:28.707Z,35.63
2016-11-29T04:25:37.704Z,35.63
2016-11-29T04:26:46.390Z,35.72
2016-11-29T04:27:56.004Z,35.63
2016-11-29T04:29:04.686Z,35.82
2016-11-29T04:30:13.973Z,35.63
2016-11-29T04:31:23.265Z,35.72
2016-11-29T04:32:32.258Z,35.72
2016-11-29T04:33:41.253Z,35.82
2016-11-29T04:34:49.933Z,35.72
2016-11-29T04:35:59.239Z,35.63
2016-11-29T04:37:08.527Z,35.72
2016-11-29T04:38:17.203Z,35.53
2016-11-29T04:39:26.499Z,35.63
2016-11-29T04:40:35.796Z,35.63
2016-11-29T04:41:45.104Z,35.63
2016-11-29T04:42:54.413Z,35.63
2016-11-29T04:44:03.724Z,35.63
2016-11-29T04:45:13.021Z,35.72
2016-11-29T04:46:22.022Z,35.82
2016-11-29T04:47:31.003Z,35.53
2016-11-29T04:48:39.998Z,35.72
2016-11-29T04:49:49.302Z,35.82
2016-11-29T04:50:58.918Z,35.72
2016-11-29T04:52:07.911Z,35.63
2016-11-29T04:53:17.219Z,35.53
2016-11-29T04:54:26.218Z,35.63
2016-11-29T04:55:35.543Z,35.63
2016-11-29T04:56:44.548Z,35.63
2016-11-29T04:57:53.233Z,35.91
2016-11-29T04:59:01.934Z,35.82
2016-11-29T05:00:10.920Z,35.63
2016-11-29T05:01:19.922Z,35.72
2016-11-29T05:02:28.627Z,35.82
2016-11-29T05:03:38.537Z,35.63
2016-11-29T05:04:47.838Z,35.63
2016-11-29T05:05:56.535Z,35.63
2016-11-29T05:07:05.858Z,35.72
2016-11-29T05:08:14.857Z,35.61
2016-11-29T05:09:24.161Z,35.63
2016-11-29T05:10:33.167Z,35.72
2016-11-29T05:11:42.160Z,35.72
2016-11-29T05:12:51.186Z,35.72
2016-11-29T05:14:00.194Z,35.53
2016-11-29T05:15:09.187Z,35.63
2016-11-29T05:16:18.500Z,35.72
2016-11-29T05:17:27.508Z,35.63
2016-11-29T05:18:37.128Z,35.72
2016-11-29T05:19:46.122Z,35.82
2016-11-29T05:20:55.118Z,35.8
2016-11-29T05:22:03.812Z,35.53
2016-11-29T05:23:12.504Z,35.72
2016-11-29T05:24:21.493Z,35.82
2016-11-29T05:25:30.514Z,35.82
2016-11-29T05:26:40.137Z,35.72
2016-11-29T05:27:50.062Z,35.53
2016-11-29T05:28:59.393Z,35.82
2016-11-29T05:30:08.390Z,35.82
2016-11-29T05:31:17.411Z,35.82
2016-11-29T05:32:26.088Z,35.72
2016-11-29T05:33:35.078Z,35.63
2016-11-29T05:34:43.763Z,35.63
2016-11-29T05:35:53.070Z,35.63
2016-11-29T05:37:02.056Z,35.63
2016-11-29T05:38:10.748Z,35.53
2016-11-29T05:39:20.352Z,35.43
2016-11-29T05:40:29.036Z,35.34
2016-11-29T05:41:37.733Z,35.24
2016-11-29T05:42:46.443Z,34.95
2016-11-29T05:43:55.431Z,35.05
2016-11-29T05:45:04.727Z,35.05
2016-11-29T05:46:13.435Z,34.95
2016-11-29T05:47:22.109Z,35.05
2016-11-29T05:48:30.820Z,35.06
2016-11-29T05:49:39.815Z,34.49
2016-11-29T05:50:48.509Z,34.2
2016-11-29T05:51:57.838Z,34.3
2016-11-29T05:53:06.829Z,34.59
2016-11-29T05:54:15.810Z,34.3
2016-11-29T05:55:24.486Z,34.39
2016-11-29T05:56:33.782Z,34.12
2016-11-29T05:57:42.457Z,34.22
2016-11-29T05:58:51.149Z,33.84
2016-11-29T06:00:00.441Z,34.03
2016-11-29T06:01:10.348Z,34.03
2016-11-29T06:02:19.032Z,33.64
2016-11-29T06:03:27.724Z,33.54
2016-11-29T06:04:37.014Z,33.18
2016-11-29T06:05:46.015Z,33.26
2016-11-29T06:06:54.695Z,33.45
2016-11-29T06:08:03.994Z,33.26
2016-11-29T06:09:12.982Z,33.37
2016-11-29T06:10:21.972Z,33.08
2016-11-29T06:11:30.664Z,33.18
2016-11-29T06:12:39.656Z,33.28
2016-11-29T06:13:48.333Z,32.98
2016-11-29T06:14:57.332Z,33.08
2016-11-29T06:16:06.333Z,33.08
2016-11-29T06:17:15.649Z,32.9
2016-11-29T06:18:24.340Z,32.9
2016-11-29T06:19:34.251Z,32.62
2016-11-29T06:20:43.542Z,32.81
2016-11-29T06:21:52.216Z,33
2016-11-29T06:23:01.829Z,33.1
2016-11-29T06:24:11.128Z,32.9
2016-11-29T06:25:20.132Z,32.81
2016-11-29T06:26:29.746Z,32.52
2016-11-29T06:27:38.452Z,32.62
2016-11-29T06:28:47.452Z,32.52
2016-11-29T06:29:56.465Z,32.33
2016-11-29T06:31:05.467Z,32.34
2016-11-29T06:32:14.459Z,32.52
2016-11-29T06:33:23.751Z,32.33
2016-11-29T06:34:32.746Z,32.44
2016-11-29T06:35:41.747Z,32.34
2016-11-29T06:36:50.737Z,32.34
2016-11-29T06:37:59.759Z,32.44
2016-11-29T06:39:08.754Z,32.15
2016-11-29T06:40:17.751Z,31.96
2016-11-29T06:41:26.761Z,32.06
2016-11-29T06:42:36.065Z,32.06
2016-11-29T06:43:45.361Z,32.15
2016-11-29T06:44:54.358Z,32.06
2016-11-29T06:46:03.665Z,32.15
2016-11-29T06:47:12.697Z,32.15
2016-11-29T06:48:21.391Z,32.15
2016-11-29T06:49:31.004Z,31.87
2016-11-29T06:50:39.696Z,31.87
2016-11-29T06:51:48.989Z,31.87
2016-11-29T06:52:58.284Z,31.87
2016-11-29T06:54:07.589Z,31.88
2016-11-29T06:55:16.897Z,31.96
2016-11-29T06:56:25.580Z,31.98
2016-11-29T06:57:34.276Z,31.88
2016-11-29T06:58:43.649Z,31.78
2016-11-29T06:59:52.327Z,31.88
2016-11-29T07:01:01.312Z,31.88
2016-11-29T07:02:10.975Z,31.88
2016-11-29T07:03:19.661Z,31.78
2016-11-29T07:04:28.685Z,31.78
2016-11-29T07:05:37.986Z,31.69
2016-11-29T07:06:47.296Z,31.78
2016-11-29T07:07:56.605Z,31.69
2016-11-29T07:09:05.284Z,31.78
2016-11-29T07:10:13.977Z,31.69
2016-11-29T07:11:23.283Z,31.78
2016-11-29T07:12:32.603Z,31.69
2016-11-29T07:13:41.299Z,31.69
2016-11-29T07:14:49.991Z,31.69
2016-11-29T07:15:58.983Z,31.69
2016-11-29T07:17:07.673Z,31.69
2016-11-29T07:18:16.662Z,31.59
2016-11-29T07:19:25.678Z,31.59
2016-11-29T07:20:35.594Z,31.69
2016-11-29T07:21:44.284Z,31.78
2016-11-29T07:22:52.975Z,31.59
2016-11-29T07:24:01.971Z,31.6
2016-11-29T07:25:10.965Z,31.51
2016-11-29T07:26:19.977Z,31.41
2016-11-29T07:27:28.965Z,31.6
2016-11-29T07:28:38.577Z,31.6
2016-11-29T07:29:47.896Z,31.51
2016-11-29T07:30:56.653Z,31.41
2016-11-29T07:32:06.161Z,31.32
2016-11-29T07:33:14.841Z,31.51
2016-11-29T07:34:24.135Z,31.51
2016-11-29T07:35:33.133Z,31.51
2016-11-29T07:36:42.437Z,31.51
2016-11-29T07:37:51.437Z,31.41
2016-11-29T07:39:00.423Z,31.41
2016-11-29T07:40:09.421Z,31.51
2016-11-29T07:41:19.036Z,31.51
2016-11-29T07:42:28.340Z,31.41
2016-11-29T07:43:37.947Z,31.51
2016-11-29T07:44:47.565Z,31.51
2016-11-29T07:45:56.278Z,31.51
2016-11-29T07:47:05.276Z,31.7
2016-11-29T07:48:14.274Z,31.7
2016-11-29T07:49:22.973Z,31.7
2016-11-29T07:50:31.658Z,31.8
2016-11-29T07:51:40.344Z,31.7
2016-11-29T07:52:49.362Z,31.8
2016-11-29T07:53:58.108Z,31.99
2016-11-29T07:55:07.087Z,31.9
2016-11-29T07:56:16.395Z,31.9
2016-11-29T07:57:25.387Z,31.99
2016-11-29T07:58:34.388Z,32.18
2016-11-29T07:59:43.382Z,32.09
2016-11-29T08:00:52.069Z,32.18
2016-11-29T08:02:00.751Z,32.18
2016-11-29T08:03:10.056Z,32.09
2016-11-29T08:04:19.355Z,32.26
2016-11-29T08:05:28.047Z,32.46
2016-11-29T08:06:37.039Z,32.36
2016-11-29T08:07:46.378Z,32.46
2016-11-29T08:08:55.392Z,32.56
2016-11-29T08:10:04.729Z,32.65
2016-11-29T08:11:14.069Z,32.56
2016-11-29T08:12:22.766Z,32.46
2016-11-29T08:13:31.458Z,32.84
2016-11-29T08:14:41.073Z,32.94
2016-11-29T08:15:49.804Z,32.84
2016-11-29T08:16:59.414Z,33.03
2016-11-29T08:18:08.412Z,32.94
2016-11-29T08:19:17.414Z,33.13
2016-11-29T08:20:26.734Z,33.13
2016-11-29T08:21:35.428Z,33.13
2016-11-29T08:22:44.437Z,33.03
2016-11-29T08:23:53.439Z,33.13
2016-11-29T08:25:02.513Z,33.21
2016-11-29T08:26:11.840Z,33.31
2016-11-29T08:27:21.806Z,33.12
2016-11-29T08:28:30.800Z,33.21
2016-11-29T08:29:40.111Z,33.4
2016-11-29T08:30:48.864Z,33.21
2016-11-29T08:31:58.482Z,33.69
2016-11-29T08:33:07.500Z,33.5
2016-11-29T08:34:16.850Z,33.69
2016-11-29T08:35:25.591Z,33.5
2016-11-29T08:36:34.913Z,33.59
2016-11-29T08:37:44.216Z,33.59
2016-11-29T08:38:52.922Z,33.89
2016-11-29T08:40:02.540Z,34.06
2016-11-29T08:41:11.223Z,34.06
2016-11-29T08:42:20.565Z,34.16
2016-11-29T08:43:29.286Z,33.97
2016-11-29T08:44:38.302Z,33.97
2016-11-29T08:45:47.629Z,33.97
2016-11-29T08:46:56.949Z,33.97
2016-11-29T08:48:05.947Z,33.87
2016-11-29T08:49:14.643Z,33.87
2016-11-29T08:50:23.356Z,34.35
2016-11-29T08:51:32.987Z,34.35
2016-11-29T08:52:41.688Z,34.25
2016-11-29T08:53:50.997Z,34.25
2016-11-29T08:55:00.021Z,34.25
2016-11-29T08:56:08.728Z,34.06
2016-11-29T08:57:17.765Z,34.16
2016-11-29T08:58:27.401Z,34.16
2016-11-29T08:59:36.408Z,34.06
2016-11-29T09:00:45.744Z,34.06
2016-11-29T09:01:54.512Z,34.06
2016-11-29T09:03:03.208Z,34.14
2016-11-29T09:04:11.893Z,34.14
2016-11-29T09:05:21.198Z,34.06
2016-11-29T09:06:30.501Z,34.16
2016-11-29T09:07:39.812Z,34.05
2016-11-29T09:08:48.512Z,34.05
2016-11-29T09:09:57.521Z,34.05
2016-11-29T09:11:06.826Z,34.05
2016-11-29T09:12:15.524Z,34.05
2016-11-29T09:13:24.214Z,34.45
2016-11-29T09:14:32.925Z,34.05
2016-11-29T09:15:41.627Z,34.43
2016-11-29T09:16:50.383Z,34.33
2016-11-29T09:17:59.085Z,34.33
2016-11-29T09:19:08.097Z,34.43
2016-11-29T09:20:17.413Z,34.43
2016-11-29T09:21:26.543Z,34.43
2016-11-29T09:22:35.867Z,34.33
2016-11-29T09:23:45.209Z,34.33
2016-11-29T09:24:54.814Z,34.33
2016-11-29T09:26:03.808Z,34.33
2016-11-29T09:27:12.806Z,34.33
2016-11-29T09:28:21.808Z,34.43
2016-11-29T09:29:30.807Z,34.43
2016-11-29T09:30:39.820Z,34.33
2016-11-29T09:31:49.165Z,34.23
2016-11-29T09:32:58.792Z,34.43
2016-11-29T09:34:08.127Z,34.43
2016-11-29T09:35:17.745Z,34.33
2016-11-29T09:36:27.082Z,34.43
2016-11-29T09:37:36.387Z,34.33
2016-11-29T09:38:45.084Z,34.33
2016-11-29T09:39:53.803Z,34.43
2016-11-29T09:41:02.532Z,34.23
2016-11-29T09:42:11.556Z,34.33
2016-11-29T09:43:20.594Z,34.33
2016-11-29T09:44:29.365Z,34.33
2016-11-29T09:45:38.059Z,34.53
2016-11-29T09:46:46.771Z,34.43
2016-11-29T09:47:56.073Z,34.31
2016-11-29T09:49:05.367Z,34.41
2016-11-29T09:50:14.434Z,34.31
2016-11-29T09:51:23.165Z,33.95
2016-11-29T09:52:32.802Z,34.31
2016-11-29T09:53:41.809Z,34.41
2016-11-29T09:54:50.536Z,33.93
2016-11-29T09:55:59.861Z,34.33
2016-11-29T09:57:08.559Z,34.43
2016-11-29T09:58:17.246Z,34.41
2016-11-29T09:59:26.877Z,34.43
2016-11-29T10:00:35.929Z,34.43
2016-11-29T10:01:44.935Z,34.31
2016-11-29T10:02:53.953Z,34.12
2016-11-29T10:04:02.652Z,33.93
2016-11-29T10:05:11.346Z,34.12
2016-11-29T10:06:20.973Z,34.31
2016-11-29T10:07:30.285Z,34.03
2016-11-29T10:08:39.439Z,34.12
2016-11-29T10:09:48.437Z,34.12
2016-11-29T10:10:57.763Z,34.12
2016-11-29T10:12:06.783Z,34.12
2016-11-29T10:13:16.108Z,34.22
2016-11-29T10:14:24.811Z,34.12
2016-11-29T10:15:34.118Z,34.03
2016-11-29T10:16:43.118Z,34.03
2016-11-29T10:17:52.111Z,34.12
2016-11-29T10:19:01.738Z,34.03
2016-11-29T10:20:11.337Z,34.03
2016-11-29T10:21:20.356Z,34.03
2016-11-29T10:22:29.355Z,34.03
2016-11-29T10:23:38.982Z,34.12
2016-11-29T10:24:47.987Z,34.03
2016-11-29T10:25:56.679Z,34.03
2016-11-29T10:27:05.686Z,34.03
2016-11-29T10:28:15.316Z,34.12
2016-11-29T10:29:24.645Z,34.12
2016-11-29T10:30:34.289Z,34.12
2016-11-29T10:31:43.334Z,34.22
2016-11-29T10:32:52.069Z,34.03
2016-11-29T10:34:01.389Z,34.03
2016-11-29T10:35:10.702Z,34.22
2016-11-29T10:36:19.404Z,34.12
2016-11-29T10:37:28.094Z,34.22
2016-11-29T10:38:37.098Z,34.12
2016-11-29T10:39:45.803Z,34.22
2016-11-29T10:40:54.821Z,34.22
2016-11-29T10:42:04.144Z,34.22
2016-11-29T10:43:13.157Z,34.22
2016-11-29T10:44:21.856Z,34.22
2016-11-29T10:45:31.182Z,34.31
2016-11-29T10:46:40.202Z,34.22
2016-11-29T10:47:49.519Z,34.22
2016-11-29T10:48:58.834Z,34.22
2016-11-29T10:50:07.550Z,34.22
2016-11-29T10:51:16.597Z,34.31
2016-11-29T10:52:25.939Z,34.31
2016-11-29T10:53:34.623Z,34.41
2016-11-29T10:54:43.329Z,34.31
2016-11-29T10:55:52.332Z,34.22
2016-11-29T10:57:01.015Z,34.31
2016-11-29T10:58:10.365Z,34.31
2016-11-29T10:59:19.399Z,33.74
2016-11-29T11:00:28.403Z,33.64
2016-11-29T11:01:37.401Z,33.84
2016-11-29T11:02:46.409Z,33.84
2016-11-29T11:03:55.727Z,33.93
2016-11-29T11:05:05.059Z,34.41
2016-11-29T11:06:14.371Z,34.03
2016-11-29T11:07:23.061Z,33.84
2016-11-29T11:08:32.397Z,33.84
2016-11-29T11:09:41.400Z,33.84
2016-11-29T11:10:50.112Z,33.84
2016-11-29T11:11:58.801Z,33.93
2016-11-29T11:13:07.508Z,33.93
2016-11-29T11:14:16.225Z,33.93
2016-11-29T11:15:24.930Z,33.93
2016-11-29T11:16:34.241Z,33.84
2016-11-29T11:17:42.955Z,34.03
2016-11-29T11:18:51.971Z,34.03
2016-11-29T11:20:01.315Z,33.93
2016-11-29T11:21:10.033Z,34.03
2016-11-29T11:22:18.853Z,34.03
2016-11-29T11:23:28.183Z,34.03
2016-11-29T11:24:36.888Z,33.93
2016-11-29T11:25:45.916Z,34.03
2016-11-29T11:26:54.618Z,34.03
2016-11-29T11:28:03.958Z,34.03
2016-11-29T11:29:12.669Z,33.93
2016-11-29T11:30:21.720Z,34.03
2016-11-29T11:31:31.072Z,33.93
2016-11-29T11:32:40.386Z,33.93
2016-11-29T11:33:49.403Z,33.93
2016-11-29T11:34:58.427Z,33.93
2016-11-29T11:36:07.149Z,33.93
2016-11-29T11:37:16.159Z,34.03
2016-11-29T11:38:24.922Z,34.03
2016-11-29T11:39:33.656Z,34.03
2016-11-29T11:40:42.960Z,33.93
2016-11-29T11:41:51.955Z,34.12
2016-11-29T11:43:00.962Z,33.93
2016-11-29T11:44:10.282Z,34.22
2016-11-29T11:45:19.600Z,34.12
2016-11-29T11:46:28.903Z,33.93
2016-11-29T11:47:38.217Z,34.03
2016-11-29T11:48:47.236Z,33.93
2016-11-29T11:49:55.948Z,34.12
2016-11-29T11:51:05.256Z,33.84
2016-11-29T11:52:14.292Z,34.12
2016-11-29T11:53:23.303Z,33.93
2016-11-29T11:54:32.308Z,34.03
2016-11-29T11:55:41.322Z,33.93
2016-11-29T11:56:50.624Z,34.03
2016-11-29T11:57:59.926Z,33.84
2016-11-29T11:59:08.944Z,33.93
2016-11-29T12:00:17.664Z,34.03
2016-11-29T12:01:27.288Z,33.74
2016-11-29T12:02:36.612Z,33.64
2016-11-29T12:03:46.232Z,33.64
2016-11-29T12:04:55.243Z,33.74
2016-11-29T12:06:04.241Z,33.84
2016-11-29T12:07:12.934Z,33.74
2016-11-29T12:08:21.940Z,33.84
2016-11-29T12:09:31.293Z,33.64
2016-11-29T12:10:40.315Z,33.84
2016-11-29T12:11:49.659Z,33.54
2016-11-29T12:12:58.971Z,33.64
2016-11-29T12:14:07.965Z,33.84
2016-11-29T12:15:17.893Z,33.54
2016-11-29T12:16:27.209Z,33.54
2016-11-29T12:17:36.234Z,33.64
2016-11-29T12:18:44.930Z,33.54
2016-11-29T12:19:53.928Z,33.54
2016-11-29T12:21:02.926Z,33.54
2016-11-29T12:22:12.241Z,33.64
2016-11-29T12:23:21.239Z,33.54
2016-11-29T12:24:30.267Z,33.54
2016-11-29T12:25:39.303Z,33.54
2016-11-29T12:26:48.934Z,33.54
2016-11-29T12:27:57.625Z,33.54
2016-11-29T12:29:06.323Z,33.45
2016-11-29T12:30:15.330Z,33.54
2016-11-29T12:31:24.343Z,33.74
2016-11-29T12:32:33.645Z,33.26
2016-11-29T12:33:42.326Z,33.26
2016-11-29T12:34:51.340Z,33.07
2016-11-29T12:36:00.348Z,33.07
2016-11-29T12:37:09.384Z,33.74
2016-11-29T12:38:18.686Z,33.64
2016-11-29T12:39:27.383Z,33.26
2016-11-29T12:40:36.416Z,33.64
2016-11-29T12:41:46.049Z,33.64
2016-11-29T12:42:54.767Z,33.64
2016-11-29T12:44:03.480Z,33.64
2016-11-29T12:45:12.785Z,33.64
2016-11-29T12:46:21.474Z,33.45
2016-11-29T12:47:30.473Z,33.74
2016-11-29T12:48:39.771Z,33.36
2016-11-29T12:49:48.785Z,33.74
2016-11-29T12:50:57.792Z,33.36
2016-11-29T12:52:06.479Z,33.26
2016-11-29T12:53:15.521Z,33.16
2016-11-29T12:54:24.849Z,33.45
2016-11-29T12:55:33.847Z,33.54
2016-11-29T12:56:42.550Z,33.45
2016-11-29T12:57:51.237Z,33.36
2016-11-29T12:59:00.535Z,33.45
2016-11-29T13:00:09.850Z,33.45
2016-11-29T13:01:19.240Z,33.36
2016-11-29T13:02:28.536Z,33.36
2016-11-29T13:03:37.845Z,33.54
2016-11-29T13:04:47.155Z,33.36
2016-11-29T13:05:56.479Z,33.54
2016-11-29T13:07:05.793Z,33.45
2016-11-29T13:08:14.792Z,33.54
2016-11-29T13:09:24.100Z,33.64
2016-11-29T13:10:33.093Z,33.16
2016-11-29T13:11:42.114Z,33.16
2016-11-29T13:12:51.111Z,33.54
2016-11-29T13:14:00.138Z,33.16
2016-11-29T13:15:09.142Z,33.16
2016-11-29T13:16:17.836Z,33.07
2016-11-29T13:17:27.130Z,33.16
2016-11-29T13:18:35.814Z,33.16
2016-11-29T13:19:44.793Z,33.16
2016-11-29T13:20:53.473Z,33.26
2016-11-29T13:22:02.469Z,33.16
2016-11-29T13:23:11.270Z,33.16
2016-11-29T13:24:20.291Z,33.45
2016-11-29T13:25:29.333Z,33.45
2016-11-29T13:26:38.024Z,33.36
2016-11-29T13:27:47.345Z,33.45
2016-11-29T13:28:56.042Z,33.36
2016-11-29T13:30:05.086Z,33.45
2016-11-29T13:31:14.084Z,33.34
2016-11-29T13:32:23.380Z,33.45
2016-11-29T13:33:32.701Z,33.34
2016-11-29T13:34:41.480Z,33.45
2016-11-29T13:35:50.800Z,33.45
2016-11-29T13:36:59.819Z,33.36
2016-11-29T13:38:09.132Z,33.36
2016-11-29T13:39:18.435Z,33.34
2016-11-29T13:40:27.750Z,33.36
2016-11-29T13:41:36.450Z,33.16
2016-11-29T13:42:46.088Z,33.24
2016-11-29T13:43:55.419Z,33.15
2016-11-29T13:45:05.031Z,33.26
2016-11-29T13:46:14.656Z,33.16
2016-11-29T13:47:23.665Z,33.36
2016-11-29T13:48:32.705Z,33.16
2016-11-29T13:49:42.347Z,33.15
2016-11-29T13:50:51.661Z,33.07
2016-11-29T13:52:00.689Z,33.07
2016-11-29T13:53:09.703Z,33.05
2016-11-29T13:54:18.734Z,33.16
2016-11-29T13:55:27.441Z,32.95
2016-11-29T13:56:36.756Z,32.97
2016-11-29T13:57:46.070Z,32.87
2016-11-29T13:58:54.761Z,32.86
2016-11-29T14:00:03.760Z,32.95
2016-11-29T14:01:13.368Z,33.16
2016-11-29T14:02:22.072Z,33.16
2016-11-29T14:03:31.384Z,33.15
2016-11-29T14:04:40.095Z,33.16
2016-11-29T14:05:49.417Z,33.26
2016-11-29T14:06:58.107Z,33.36
2016-11-29T14:08:07.400Z,33.07
2016-11-29T14:09:16.727Z,33.24
2016-11-29T14:10:25.440Z,33.16
2016-11-29T14:11:34.128Z,33.16
2016-11-29T14:12:42.826Z,33.16
2016-11-29T14:13:51.831Z,33.16
2016-11-29T14:15:00.839Z,33.16
2016-11-29T14:16:10.146Z,33.45
2016-11-29T14:17:19.451Z,33.34
2016-11-29T14:18:28.469Z,33.16
2016-11-29T14:19:37.482Z,33.26
2016-11-29T14:20:46.782Z,33.05
2016-11-29T14:21:55.790Z,33.15
2016-11-29T14:23:04.787Z,33.36
2016-11-29T14:24:13.826Z,33.26
2016-11-29T14:25:22.832Z,33.34
2016-11-29T14:26:32.164Z,33.05
2016-11-29T14:27:41.200Z,33.26
2016-11-29T14:28:50.891Z,33.24
2016-11-29T14:30:00.202Z,33.16
2016-11-29T14:31:09.207Z,33.05
2016-11-29T14:32:17.900Z,33.15
2016-11-29T14:33:27.228Z,33.26
2016-11-29T14:34:36.529Z,33.36
2016-11-29T14:35:45.223Z,33.16
2016-11-29T14:36:54.257Z,33.34
2016-11-29T14:38:04.230Z,33.34
2016-11-29T14:39:13.249Z,33.26
2016-11-29T14:40:21.958Z,33.34
2016-11-29T14:41:30.984Z,33.26
2016-11-29T14:42:39.986Z,33.24
2016-11-29T14:43:48.985Z,33.34
2016-11-29T14:44:57.681Z,33.26
2016-11-29T14:46:06.690Z,33.26
2016-11-29T14:47:15.696Z,33.26
2016-11-29T14:48:24.389Z,33.24
2016-11-29T14:49:33.426Z,33.24
2016-11-29T14:50:42.443Z,33.15